sensor_id;sensor_type;location;lat;lon;timestamp;pressure;altitude;pressure_sealevel;temperature;humidity
31044;BME280;17710;52.520;13.352;2023-05-21T00:01:24;101667.56;;;21.96;51.51
31044;BME280;17710;52.520;13.352;2023-05-21T00:03:50;101666.16;;;22.03;51.43
31044;BME280;17710;52.520;13.352;2023-05-21T00:06:16;101653.63;;;21.90;51.78
31044;BME280;17710;52.520;13.352;2023-05-21T00:08:46;101656.25;;;21.64;52.51
31044;BME280;17710;52.520;13.352;2023-05-21T00:11:12;101651.31;;;21.98;51.94
31044;BME280;17710;52.520;13.352;2023-05-21T00:13:38;101658.13;;;21.89;51.81
31044;BME280;17710;52.520;13.352;2023-05-21T00:16:05;101659.66;;;21.93;51.79
31044;BME280;17710;52.520;13.352;2023-05-21T00:18:32;101653.03;;;21.99;51.79
31044;BME280;17710;52.520;13.352;2023-05-21T00:20:58;101648.81;;;22.07;51.46
31044;BME280;17710;52.520;13.352;2023-05-21T00:23:25;101650.03;;;22.03;51.78
31044;BME280;17710;52.520;13.352;2023-05-21T00:25:53;101648.63;;;21.98;51.85
31044;BME280;17710;52.520;13.352;2023-05-21T00:28:20;101648.34;;;21.88;52.15
31044;BME280;17710;52.520;13.352;2023-05-21T00:30:46;101641.84;;;22.05;51.73
31044;BME280;17710;52.520;13.352;2023-05-21T00:33:13;101639.69;;;21.97;51.96
31044;BME280;17710;52.520;13.352;2023-05-21T00:35:39;101639.22;;;21.91;52.29
31044;BME280;17710;52.520;13.352;2023-05-21T00:38:06;101643.97;;;22.00;51.87
31044;BME280;17710;52.520;13.352;2023-05-21T00:40:33;101640.53;;;21.98;51.82
31044;BME280;17710;52.520;13.352;2023-05-21T00:43:01;101639.78;;;21.96;51.88
31044;BME280;17710;52.520;13.352;2023-05-21T00:45:28;101640.28;;;21.88;52.14
31044;BME280;17710;52.520;13.352;2023-05-21T00:47:54;101640.16;;;21.90;52.28
31044;BME280;17710;52.520;13.352;2023-05-21T00:50:21;101632.28;;;21.86;52.34
31044;BME280;17710;52.520;13.352;2023-05-21T00:52:48;101629.50;;;21.75;52.64
31044;BME280;17710;52.520;13.352;2023-05-21T00:55:15;101635.63;;;21.77;52.52
31044;BME280;17710;52.520;13.352;2023-05-21T00:57:42;101633.25;;;21.73;52.59
31044;BME280;17710;52.520;13.352;2023-05-21T01:00:13;101626.38;;;21.81;52.46
31044;BME280;17710;52.520;13.352;2023-05-21T01:02:40;101627.31;;;21.68;52.72
31044;BME280;17710;52.520;13.352;2023-05-21T01:05:08;101626.69;;;21.77;52.65
31044;BME280;17710;52.520;13.352;2023-05-21T01:07:37;101622.31;;;21.49;53.41
31044;BME280;17710;52.520;13.352;2023-05-21T01:10:06;101624.47;;;21.44;53.76
31044;BME280;17710;52.520;13.352;2023-05-21T01:12:34;101619.50;;;21.38;53.90
31044;BME280;17710;52.520;13.352;2023-05-21T01:15:01;101616.91;;;20.95;55.06
31044;BME280;17710;52.520;13.352;2023-05-21T01:17:30;101621.41;;;21.36;53.94
31044;BME280;17710;52.520;13.352;2023-05-21T01:19:59;101628.13;;;21.43;53.83
31044;BME280;17710;52.520;13.352;2023-05-21T01:22:27;101619.91;;;21.32;54.29
31044;BME280;17710;52.520;13.352;2023-05-21T01:24:58;101617.63;;;21.26;54.34
31044;BME280;17710;52.520;13.352;2023-05-21T01:27:26;101616.94;;;21.49;53.91
31044;BME280;17710;52.520;13.352;2023-05-21T01:29:53;101622.31;;;21.49;53.76
31044;BME280;17710;52.520;13.352;2023-05-21T01:32:29;101618.53;;;21.39;54.40
31044;BME280;17710;52.520;13.352;2023-05-21T01:35:01;101609.63;;;21.38;54.33
31044;BME280;17710;52.520;13.352;2023-05-21T01:37:30;101617.44;;;21.15;54.93
31044;BME280;17710;52.520;13.352;2023-05-21T01:40:06;101619.28;;;21.41;54.40
31044;BME280;17710;52.520;13.352;2023-05-21T01:42:36;101615.19;;;21.35;54.97
31044;BME280;17710;52.520;13.352;2023-05-21T01:45:05;101614.47;;;21.46;54.37
31044;BME280;17710;52.520;13.352;2023-05-21T01:47:34;101615.03;;;21.51;54.30
31044;BME280;17710;52.520;13.352;2023-05-21T01:50:01;101616.75;;;21.52;54.37
31044;BME280;17710;52.520;13.352;2023-05-21T01:52:28;101611.56;;;21.49;54.65
31044;BME280;17710;52.520;13.352;2023-05-21T01:54:55;101598.34;;;21.46;54.92
31044;BME280;17710;52.520;13.352;2023-05-21T01:57:23;101601.97;;;21.32;55.65
31044;BME280;17710;52.520;13.352;2023-05-21T01:59:50;101602.81;;;21.33;55.46
31044;BME280;17710;52.520;13.352;2023-05-21T02:02:18;101594.53;;;21.36;55.29
31044;BME280;17710;52.520;13.352;2023-05-21T02:04:45;101601.09;;;21.32;55.73
31044;BME280;17710;52.520;13.352;2023-05-21T02:07:11;101597.09;;;21.25;55.99
31044;BME280;17710;52.520;13.352;2023-05-21T02:09:38;101599.16;;;21.34;55.88
31044;BME280;17710;52.520;13.352;2023-05-21T02:12:05;101600.69;;;21.38;55.42
31044;BME280;17710;52.520;13.352;2023-05-21T02:14:33;101599.00;;;21.23;56.33
31044;BME280;17710;52.520;13.352;2023-05-21T02:17:00;101598.41;;;21.32;55.99
31044;BME280;17710;52.520;13.352;2023-05-21T02:19:26;101591.09;;;21.34;55.92
31044;BME280;17710;52.520;13.352;2023-05-21T02:21:53;101593.72;;;21.21;56.52
31044;BME280;17710;52.520;13.352;2023-05-21T02:24:20;101594.03;;;21.17;56.60
31044;BME280;17710;52.520;13.352;2023-05-21T02:26:48;101591.81;;;21.09;56.82
31044;BME280;17710;52.520;13.352;2023-05-21T02:29:15;101594.59;;;21.22;56.63
31044;BME280;17710;52.520;13.352;2023-05-21T02:31:43;101587.84;;;21.29;56.35
31044;BME280;17710;52.520;13.352;2023-05-21T02:34:09;101588.19;;;21.10;57.03
31044;BME280;17710;52.520;13.352;2023-05-21T02:36:35;101584.63;;;21.09;57.18
31044;BME280;17710;52.520;13.352;2023-05-21T02:39:02;101591.72;;;21.11;57.17
31044;BME280;17710;52.520;13.352;2023-05-21T02:41:28;101586.94;;;21.16;56.83
31044;BME280;17710;52.520;13.352;2023-05-21T02:43:55;101586.63;;;20.93;57.57
31044;BME280;17710;52.520;13.352;2023-05-21T02:46:21;101584.06;;;21.19;56.92
31044;BME280;17710;52.520;13.352;2023-05-21T02:48:49;101585.81;;;21.05;57.20
31044;BME280;17710;52.520;13.352;2023-05-21T02:51:15;101584.63;;;21.09;57.31
31044;BME280;17710;52.520;13.352;2023-05-21T02:53:41;101577.94;;;21.02;57.57
31044;BME280;17710;52.520;13.352;2023-05-21T02:56:08;101579.56;;;21.05;57.51
31044;BME280;17710;52.520;13.352;2023-05-21T02:58:36;101576.97;;;21.03;57.31
31044;BME280;17710;52.520;13.352;2023-05-21T03:01:02;101565.22;;;20.92;58.07
31044;BME280;17710;52.520;13.352;2023-05-21T03:03:29;101568.97;;;20.89;58.01
31044;BME280;17710;52.520;13.352;2023-05-21T03:05:57;101569.88;;;21.02;57.79
31044;BME280;17710;52.520;13.352;2023-05-21T03:08:24;101570.50;;;20.93;57.97
31044;BME280;17710;52.520;13.352;2023-05-21T03:10:50;101568.38;;;20.98;58.12
31044;BME280;17710;52.520;13.352;2023-05-21T03:13:16;101574.47;;;21.00;57.88
31044;BME280;17710;52.520;13.352;2023-05-21T03:15:43;101565.28;;;21.04;57.70
31044;BME280;17710;52.520;13.352;2023-05-21T03:18:10;101571.72;;;20.88;58.35
31044;BME280;17710;52.520;13.352;2023-05-21T03:20:37;101568.97;;;20.89;58.42
31044;BME280;17710;52.520;13.352;2023-05-21T03:23:09;101560.75;;;20.78;58.95
31044;BME280;17710;52.520;13.352;2023-05-21T03:25:37;101568.72;;;20.80;58.82
31044;BME280;17710;52.520;13.352;2023-05-21T03:28:04;101569.81;;;20.90;58.61
31044;BME280;17710;52.520;13.352;2023-05-21T03:30:30;101569.41;;;20.96;58.38
31044;BME280;17710;52.520;13.352;2023-05-21T03:32:57;101575.50;;;20.85;58.68
31044;BME280;17710;52.520;13.352;2023-05-21T03:35:23;101574.47;;;21.00;58.50
31044;BME280;17710;52.520;13.352;2023-05-21T03:37:50;101570.75;;;21.03;58.33
31044;BME280;17710;52.520;13.352;2023-05-21T03:40:18;101568.38;;;20.98;58.33
31044;BME280;17710;52.520;13.352;2023-05-21T03:42:45;101567.59;;;20.96;58.39
31044;BME280;17710;52.520;13.352;2023-05-21T03:45:12;101577.75;;;21.05;58.42
31044;BME280;17710;52.520;13.352;2023-05-21T03:47:38;101584.94;;;21.19;58.02
31044;BME280;17710;52.520;13.352;2023-05-21T03:50:06;101573.34;;;21.04;58.39
31044;BME280;17710;52.520;13.352;2023-05-21T03:52:33;101572.69;;;21.14;58.29
31044;BME280;17710;52.520;13.352;2023-05-21T03:55:00;101584.72;;;21.08;58.35
31044;BME280;17710;52.520;13.352;2023-05-21T03:57:28;101577.34;;;21.12;58.02
31044;BME280;17710;52.520;13.352;2023-05-21T03:59:54;101579.25;;;21.24;58.03
31044;BME280;17710;52.520;13.352;2023-05-21T04:02:24;101578.81;;;21.30;57.90
31044;BME280;17710;52.520;13.352;2023-05-21T04:04:50;101576.69;;;21.35;57.67
31044;BME280;17710;52.520;13.352;2023-05-21T04:07:17;101574.75;;;21.37;57.51
31044;BME280;17710;52.520;13.352;2023-05-21T04:09:44;101582.38;;;21.30;57.73
31044;BME280;17710;52.520;13.352;2023-05-21T04:12:11;101594.06;;;21.56;57.09
31044;BME280;17710;52.520;13.352;2023-05-21T04:14:39;101587.28;;;21.51;57.35
31044;BME280;17710;52.520;13.352;2023-05-21T04:17:05;101592.56;;;21.52;56.97
31044;BME280;17710;52.520;13.352;2023-05-21T04:19:33;101589.03;;;21.64;57.03
31044;BME280;17710;52.520;13.352;2023-05-21T04:21:59;101593.13;;;21.70;56.56
31044;BME280;17710;52.520;13.352;2023-05-21T04:24:25;101592.44;;;21.66;56.69
31044;BME280;17710;52.520;13.352;2023-05-21T04:26:52;101593.66;;;21.75;56.67
31044;BME280;17710;52.520;13.352;2023-05-21T04:29:18;101600.00;;;21.86;56.33
31044;BME280;17710;52.520;13.352;2023-05-21T04:31:46;101597.75;;;21.80;56.44
31044;BME280;17710;52.520;13.352;2023-05-21T04:34:13;101598.34;;;22.11;55.72
31044;BME280;17710;52.520;13.352;2023-05-21T04:36:42;101600.19;;;22.10;55.74
31044;BME280;17710;52.520;13.352;2023-05-21T04:39:09;101596.72;;;22.08;55.76
31044;BME280;17710;52.520;13.352;2023-05-21T04:41:35;101597.50;;;22.23;55.40
31044;BME280;17710;52.520;13.352;2023-05-21T04:44:02;101602.78;;;22.24;55.27
31044;BME280;17710;52.520;13.352;2023-05-21T04:46:29;101602.00;;;22.35;55.19
31044;BME280;17710;52.520;13.352;2023-05-21T04:48:56;101595.06;;;22.56;54.49
31044;BME280;17710;52.520;13.352;2023-05-21T04:51:27;101596.81;;;22.57;54.48
31044;BME280;17710;52.520;13.352;2023-05-21T04:53:53;101601.91;;;22.86;53.83
31044;BME280;17710;52.520;13.352;2023-05-21T04:56:20;101592.25;;;22.83;53.91
31044;BME280;17710;52.520;13.352;2023-05-21T04:58:46;101593.94;;;22.97;53.60
31044;BME280;17710;52.520;13.352;2023-05-21T05:01:13;101591.03;;;23.11;53.01
31044;BME280;17710;52.520;13.352;2023-05-21T05:03:40;101583.25;;;23.19;52.58
31044;BME280;17710;52.520;13.352;2023-05-21T05:06:08;101591.22;;;23.21;52.78
31044;BME280;17710;52.520;13.352;2023-05-21T05:08:34;101587.97;;;23.63;51.79
31044;BME280;17710;52.520;13.352;2023-05-21T05:11:00;101589.91;;;23.96;51.08
31044;BME280;17710;52.520;13.352;2023-05-21T05:13:27;101591.09;;;24.27;49.68
31044;BME280;17710;52.520;13.352;2023-05-21T05:15:53;101589.84;;;24.31;49.17
31044;BME280;17710;52.520;13.352;2023-05-21T05:18:21;101598.09;;;24.41;49.06
31044;BME280;17710;52.520;13.352;2023-05-21T05:20:47;101602.78;;;24.04;49.93
31044;BME280;17710;52.520;13.352;2023-05-21T05:23:15;101607.59;;;24.00;49.76
31044;BME280;17710;52.520;13.352;2023-05-21T05:25:41;101609.22;;;24.14;49.93
31044;BME280;17710;52.520;13.352;2023-05-21T05:28:08;101603.66;;;23.93;49.92
31044;BME280;17710;52.520;13.352;2023-05-21T05:30:34;101610.72;;;23.83;50.65
31044;BME280;17710;52.520;13.352;2023-05-21T05:33:01;101597.59;;;23.78;50.58
31044;BME280;17710;52.520;13.352;2023-05-21T05:35:27;101594.84;;;24.02;50.08
31044;BME280;17710;52.520;13.352;2023-05-21T05:37:53;101597.66;;;24.12;49.71
31044;BME280;17710;52.520;13.352;2023-05-21T05:40:22;101597.94;;;24.31;49.21
31044;BME280;17710;52.520;13.352;2023-05-21T05:42:48;101586.03;;;24.22;49.16
31044;BME280;17710;52.520;13.352;2023-05-21T05:45:16;101597.22;;;24.29;49.05
31044;BME280;17710;52.520;13.352;2023-05-21T05:47:43;101596.69;;;24.13;49.00
31044;BME280;17710;52.520;13.352;2023-05-21T05:50:09;101599.00;;;24.06;49.20
31044;BME280;17710;52.520;13.352;2023-05-21T05:52:36;101600.25;;;24.13;49.34
31044;BME280;17710;52.520;13.352;2023-05-21T05:55:03;101591.69;;;24.19;48.95
31044;BME280;17710;52.520;13.352;2023-05-21T05:57:31;101588.75;;;24.45;48.30
31044;BME280;17710;52.520;13.352;2023-05-21T05:59:58;101595.75;;;24.47;48.53
31044;BME280;17710;52.520;13.352;2023-05-21T06:02:24;101592.91;;;24.49;48.29
31044;BME280;17710;52.520;13.352;2023-05-21T06:04:51;101592.03;;;24.71;47.56
31044;BME280;17710;52.520;13.352;2023-05-21T06:07:17;101586.78;;;24.47;48.20
31044;BME280;17710;52.520;13.352;2023-05-21T06:09:43;101592.19;;;24.58;47.74
31044;BME280;17710;52.520;13.352;2023-05-21T06:12:09;101600.41;;;24.56;47.51
31044;BME280;17710;52.520;13.352;2023-05-21T06:14:37;101590.47;;;24.57;47.48
31044;BME280;17710;52.520;13.352;2023-05-21T06:17:04;101584.78;;;24.71;47.09
31044;BME280;17710;52.520;13.352;2023-05-21T06:19:30;101585.38;;;24.75;46.95
31044;BME280;17710;52.520;13.352;2023-05-21T06:21:57;101591.41;;;24.78;46.69
31044;BME280;17710;52.520;13.352;2023-05-21T06:24:23;101578.53;;;24.71;46.85
31044;BME280;17710;52.520;13.352;2023-05-21T06:26:49;101577.41;;;24.84;46.79
31044;BME280;17710;52.520;13.352;2023-05-21T06:29:16;101582.81;;;24.95;46.57
31044;BME280;17710;52.520;13.352;2023-05-21T06:31:43;101582.09;;;24.93;46.26
31044;BME280;17710;52.520;13.352;2023-05-21T06:34:10;101573.63;;;24.42;47.70
31044;BME280;17710;52.520;13.352;2023-05-21T06:36:36;101578.75;;;24.79;47.16
31044;BME280;17710;52.520;13.352;2023-05-21T06:39:03;101579.34;;;25.05;46.46
31044;BME280;17710;52.520;13.352;2023-05-21T06:41:29;101583.19;;;24.91;46.54
31044;BME280;17710;52.520;13.352;2023-05-21T06:43:56;101581.94;;;25.06;46.15
31044;BME280;17710;52.520;13.352;2023-05-21T06:46:22;101585.69;;;25.15;45.92
31044;BME280;17710;52.520;13.352;2023-05-21T06:48:50;101580.69;;;25.10;46.34
31044;BME280;17710;52.520;13.352;2023-05-21T06:51:16;101580.78;;;25.20;45.77
31044;BME280;17710;52.520;13.352;2023-05-21T06:53:43;101583.22;;;25.23;45.76
31044;BME280;17710;52.520;13.352;2023-05-21T06:56:09;101582.84;;;25.48;45.40
31044;BME280;17710;52.520;13.352;2023-05-21T06:58:37;101582.44;;;25.32;45.09
31044;BME280;17710;52.520;13.352;2023-05-21T07:01:03;101582.66;;;25.40;44.98
31044;BME280;17710;52.520;13.352;2023-05-21T07:03:30;101582.13;;;25.57;44.50
31044;BME280;17710;52.520;13.352;2023-05-21T07:05:57;101572.41;;;25.75;44.70
31044;BME280;17710;52.520;13.352;2023-05-21T07:08:24;101582.34;;;25.86;44.02
31044;BME280;17710;52.520;13.352;2023-05-21T07:10:50;101572.44;;;26.06;43.62
31044;BME280;17710;52.520;13.352;2023-05-21T07:13:17;101583.34;;;26.15;43.61
31044;BME280;17710;52.520;13.352;2023-05-21T07:15:43;101576.53;;;26.21;43.17
31044;BME280;17710;52.520;13.352;2023-05-21T07:18:09;101572.50;;;26.36;43.04
31044;BME280;17710;52.520;13.352;2023-05-21T07:20:37;101575.88;;;26.69;42.64
31044;BME280;17710;52.520;13.352;2023-05-21T07:23:05;101577.69;;;26.98;41.72
31044;BME280;17710;52.520;13.352;2023-05-21T07:25:31;101576.03;;;27.17;41.44
31044;BME280;17710;52.520;13.352;2023-05-21T07:27:57;101576.72;;;27.28;40.70
31044;BME280;17710;52.520;13.352;2023-05-21T07:30:24;101573.47;;;26.85;41.04
31044;BME280;17710;52.520;13.352;2023-05-21T07:32:50;101571.16;;;27.20;40.77
31044;BME280;17710;52.520;13.352;2023-05-21T07:35:17;101571.28;;;27.09;40.55
31044;BME280;17710;52.520;13.352;2023-05-21T07:37:44;101571.16;;;27.20;40.70
31044;BME280;17710;52.520;13.352;2023-05-21T07:40:13;101571.75;;;27.24;40.46
31044;BME280;17710;52.520;13.352;2023-05-21T07:42:39;101572.59;;;27.34;40.45
31044;BME280;17710;52.520;13.352;2023-05-21T07:45:06;101557.16;;;27.83;39.73
31044;BME280;17710;52.520;13.352;2023-05-21T07:47:33;101567.28;;;27.81;39.64
31044;BME280;17710;52.520;13.352;2023-05-21T07:49:59;101560.66;;;28.02;38.71
31044;BME280;17710;52.520;13.352;2023-05-21T07:52:26;101562.75;;;27.62;39.62
31044;BME280;17710;52.520;13.352;2023-05-21T07:54:52;101554.59;;;27.62;39.54
31044;BME280;17710;52.520;13.352;2023-05-21T07:57:20;101566.03;;;27.75;39.38
31044;BME280;17710;52.520;13.352;2023-05-21T07:59:47;101562.63;;;27.63;39.66
31044;BME280;17710;52.520;13.352;2023-05-21T08:02:13;101559.53;;;27.95;39.27
31044;BME280;17710;52.520;13.352;2023-05-21T08:04:40;101555.22;;;28.02;39.27
31044;BME280;17710;52.520;13.352;2023-05-21T08:07:08;101544.72;;;28.27;38.58
31044;BME280;17710;52.520;13.352;2023-05-21T08:09:41;101554.47;;;28.20;38.29
31044;BME280;17710;52.520;13.352;2023-05-21T08:12:14;101555.75;;;27.69;39.30
31044;BME280;17710;52.520;13.352;2023-05-21T08:14:46;101556.06;;;28.03;38.66
31044;BME280;17710;52.520;13.352;2023-05-21T08:17:13;101559.31;;;28.26;38.13
31044;BME280;17710;52.520;13.352;2023-05-21T08:19:43;101552.47;;;28.49;37.93
31044;BME280;17710;52.520;13.352;2023-05-21T08:22:13;101550.34;;;28.70;37.42
31044;BME280;17710;52.520;13.352;2023-05-21T08:24:40;101545.38;;;28.66;37.38
31044;BME280;17710;52.520;13.352;2023-05-21T08:27:15;101551.06;;;28.72;37.19
31044;BME280;17710;52.520;13.352;2023-05-21T08:29:49;101547.72;;;28.88;37.14
31044;BME280;17710;52.520;13.352;2023-05-21T08:32:20;101552.03;;;28.53;37.22
31044;BME280;17710;52.520;13.352;2023-05-21T08:34:47;101545.50;;;28.46;37.37
31044;BME280;17710;52.520;13.352;2023-05-21T08:37:13;101545.78;;;28.71;37.21
31044;BME280;17710;52.520;13.352;2023-05-21T08:39:45;101551.59;;;29.03;36.68
31044;BME280;17710;52.520;13.352;2023-05-21T08:42:18;101553.50;;;29.38;35.81
31044;BME280;17710;52.520;13.352;2023-05-21T08:44:53;101551.75;;;29.73;35.36
31044;BME280;17710;52.520;13.352;2023-05-21T08:47:25;101547.69;;;29.77;34.82
31044;BME280;17710;52.520;13.352;2023-05-21T08:49:52;101546.63;;;29.95;35.17
31044;BME280;17710;52.520;13.352;2023-05-21T08:52:19;101543.31;;;29.84;35.34
31044;BME280;17710;52.520;13.352;2023-05-21T08:54:47;101543.81;;;29.87;34.97
31044;BME280;17710;52.520;13.352;2023-05-21T08:57:16;101540.44;;;30.11;34.75
31044;BME280;17710;52.520;13.352;2023-05-21T08:59:44;101544.59;;;30.23;34.69
31044;BME280;17710;52.520;13.352;2023-05-21T09:02:13;101553.84;;;30.04;34.61
31044;BME280;17710;52.520;13.352;2023-05-21T09:04:40;101541.19;;;29.95;34.49
31044;BME280;17710;52.520;13.352;2023-05-21T09:07:08;101545.53;;;29.88;34.89
31044;BME280;17710;52.520;13.352;2023-05-21T09:09:43;101541.84;;;29.71;34.93
31044;BME280;17710;52.520;13.352;2023-05-21T09:12:12;101539.06;;;29.63;34.87
31044;BME280;17710;52.520;13.352;2023-05-21T09:14:39;101544.00;;;29.42;35.18
31044;BME280;17710;52.520;13.352;2023-05-21T09:17:07;101549.81;;;29.47;35.03
31044;BME280;17710;52.520;13.352;2023-05-21T09:19:35;101545.06;;;29.49;34.72
31044;BME280;17710;52.520;13.352;2023-05-21T09:22:02;101537.63;;;29.51;34.66
31044;BME280;17710;52.520;13.352;2023-05-21T09:24:29;101535.53;;;29.45;34.79
31044;BME280;17710;52.520;13.352;2023-05-21T09:26:57;101548.19;;;29.54;34.29
31044;BME280;17710;52.520;13.352;2023-05-21T09:29:23;101547.25;;;29.63;33.98
31044;BME280;17710;52.520;13.352;2023-05-21T09:31:51;101535.84;;;29.86;33.95
31044;BME280;17710;52.520;13.352;2023-05-21T09:34:19;101531.06;;;29.88;34.04
31044;BME280;17710;52.520;13.352;2023-05-21T09:36:47;101533.13;;;30.20;33.65
31044;BME280;17710;52.520;13.352;2023-05-21T09:39:26;101535.22;;;29.92;33.49
31044;BME280;17710;52.520;13.352;2023-05-21T09:41:55;101532.16;;;29.95;33.60
31044;BME280;17710;52.520;13.352;2023-05-21T09:44:22;101527.63;;;30.03;33.32
31044;BME280;17710;52.520;13.352;2023-05-21T09:46:48;101528.47;;;30.04;33.86
31044;BME280;17710;52.520;13.352;2023-05-21T09:49:21;101521.47;;;30.01;33.87
31044;BME280;17710;52.520;13.352;2023-05-21T09:51:53;101524.41;;;30.08;33.29
31044;BME280;17710;52.520;13.352;2023-05-21T09:54:21;101523.53;;;30.07;33.78
31044;BME280;17710;52.520;13.352;2023-05-21T09:56:47;101517.97;;;30.17;33.74
31044;BME280;17710;52.520;13.352;2023-05-21T09:59:13;101522.69;;;30.41;33.12
31044;BME280;17710;52.520;13.352;2023-05-21T10:01:40;101513.69;;;30.15;32.68
31044;BME280;17710;52.520;13.352;2023-05-21T10:04:08;101515.78;;;30.21;32.87
31044;BME280;17710;52.520;13.352;2023-05-21T10:06:37;101509.53;;;30.36;33.12
31044;BME280;17710;52.520;13.352;2023-05-21T10:09:09;101506.25;;;30.59;32.38
31044;BME280;17710;52.520;13.352;2023-05-21T10:11:36;101502.19;;;30.71;32.06
31044;BME280;17710;52.520;13.352;2023-05-21T10:14:06;101504.16;;;30.53;32.84
31044;BME280;17710;52.520;13.352;2023-05-21T10:16:33;101501.81;;;30.66;32.47
31044;BME280;17710;52.520;13.352;2023-05-21T10:19:01;101498.31;;;30.98;32.29
31044;BME280;17710;52.520;13.352;2023-05-21T10:21:29;101497.25;;;30.82;32.37
31044;BME280;17710;52.520;13.352;2023-05-21T10:23:56;101487.91;;;30.85;32.27
31044;BME280;17710;52.520;13.352;2023-05-21T10:26:24;101494.19;;;30.94;32.20
31044;BME280;17710;52.520;13.352;2023-05-21T10:28:52;101492.63;;;30.67;32.22
31044;BME280;17710;52.520;13.352;2023-05-21T10:31:21;101481.81;;;31.15;31.84
31044;BME280;17710;52.520;13.352;2023-05-21T10:33:49;101487.06;;;31.25;31.80
31044;BME280;17710;52.520;13.352;2023-05-21T10:36:16;101477.66;;;31.52;31.19
31044;BME280;17710;52.520;13.352;2023-05-21T10:38:43;101492.03;;;31.30;31.29
31044;BME280;17710;52.520;13.352;2023-05-21T10:41:11;101482.28;;;31.51;30.83
31044;BME280;17710;52.520;13.352;2023-05-21T10:43:48;101477.66;;;31.52;31.15
31044;BME280;17710;52.520;13.352;2023-05-21T10:46:42;101476.31;;;31.48;30.64
31044;BME280;17710;52.520;13.352;2023-05-21T10:49:22;101472.72;;;31.55;30.72
31044;BME280;17710;52.520;13.352;2023-05-21T10:52:00;101466.09;;;31.50;30.70
31044;BME280;17710;52.520;13.352;2023-05-21T10:54:59;101463.34;;;31.50;30.41
31044;BME280;17710;52.520;13.352;2023-05-21T10:57:39;101473.94;;;31.45;30.71
31044;BME280;17710;52.520;13.352;2023-05-21T11:00:15;101472.25;;;31.36;30.43
31044;BME280;17710;52.520;13.352;2023-05-21T11:02:44;101478.03;;;31.49;30.33
31044;BME280;17710;52.520;13.352;2023-05-21T11:05:12;101470.00;;;31.31;30.43
31044;BME280;17710;52.520;13.352;2023-05-21T11:07:49;101467.63;;;31.28;30.23
31044;BME280;17710;52.520;13.352;2023-05-21T11:10:30;101458.94;;;31.08;30.08
31044;BME280;17710;52.520;13.352;2023-05-21T11:13:07;101468.13;;;31.32;29.83
31044;BME280;17710;52.520;13.352;2023-05-21T11:16:08;101467.13;;;31.33;29.61
31044;BME280;17710;52.520;13.352;2023-05-21T11:18:59;101462.00;;;31.30;29.55
31044;BME280;17710;52.520;13.352;2023-05-21T11:21:30;101455.97;;;31.58;29.39
31044;BME280;17710;52.520;13.352;2023-05-21T11:24:00;101453.09;;;31.76;29.05
31044;BME280;17710;52.520;13.352;2023-05-21T11:26:28;101454.97;;;31.51;29.33
31044;BME280;17710;52.520;13.352;2023-05-21T11:29:09;101453.78;;;31.70;28.55
31044;BME280;17710;52.520;13.352;2023-05-21T11:31:37;101458.75;;;31.50;28.51
31044;BME280;17710;52.520;13.352;2023-05-21T11:34:07;101454.00;;;31.36;28.90
31044;BME280;17710;52.520;13.352;2023-05-21T11:36:35;101450.72;;;31.33;28.77
31044;BME280;17710;52.520;13.352;2023-05-21T11:39:08;101445.31;;;31.16;28.96
31044;BME280;17710;52.520;13.352;2023-05-21T11:41:51;101446.13;;;31.49;28.53
31044;BME280;17710;52.520;13.352;2023-05-21T11:44:17;101443.91;;;31.61;28.54
31044;BME280;17710;52.520;13.352;2023-05-21T11:46:50;101442.78;;;31.86;28.33
31044;BME280;17710;52.520;13.352;2023-05-21T11:49:17;101454.38;;;31.96;28.18
31044;BME280;17710;52.520;13.352;2023-05-21T11:51:46;101443.41;;;32.04;27.75
31044;BME280;17710;52.520;13.352;2023-05-21T11:54:13;101452.88;;;32.33;27.60
31044;BME280;17710;52.520;13.352;2023-05-21T11:56:42;101445.59;;;32.17;27.35
31044;BME280;17710;52.520;13.352;2023-05-21T11:59:14;101443.91;;;32.16;27.12
31044;BME280;17710;52.520;13.352;2023-05-21T12:01:42;101433.72;;;32.33;27.07
31044;BME280;17710;52.520;13.352;2023-05-21T12:04:10;101439.13;;;32.49;27.26
31044;BME280;17710;52.520;13.352;2023-05-21T12:06:37;101433.44;;;32.51;26.73
31044;BME280;17710;52.520;13.352;2023-05-21T12:09:07;101433.78;;;32.56;26.65
31044;BME280;17710;52.520;13.352;2023-05-21T12:11:35;101436.13;;;32.67;26.87
31044;BME280;17710;52.520;13.352;2023-05-21T12:14:01;101432.41;;;32.52;26.66
31044;BME280;17710;52.520;13.352;2023-05-21T12:16:28;101427.03;;;32.66;27.04
31044;BME280;17710;52.520;13.352;2023-05-21T12:18:55;101441.69;;;32.96;26.38
31044;BME280;17710;52.520;13.352;2023-05-21T12:21:23;101433.53;;;33.11;26.24
31044;BME280;17710;52.520;13.352;2023-05-21T12:23:50;101429.09;;;33.10;25.75
31044;BME280;17710;52.520;13.352;2023-05-21T12:26:16;101425.03;;;32.83;25.52
31044;BME280;17710;52.520;13.352;2023-05-21T12:28:43;101426.25;;;32.50;25.73
31044;BME280;17710;52.520;13.352;2023-05-21T12:31:13;101435.06;;;32.37;25.93
31044;BME280;17710;52.520;13.352;2023-05-21T12:33:44;101420.03;;;32.64;25.80
31044;BME280;17710;52.520;13.352;2023-05-21T12:36:20;101433.84;;;32.70;25.95
31044;BME280;17710;52.520;13.352;2023-05-21T12:38:48;101430.63;;;32.90;25.96
31044;BME280;17710;52.520;13.352;2023-05-21T12:41:15;101416.94;;;32.90;25.94
31044;BME280;17710;52.520;13.352;2023-05-21T12:43:42;101415.78;;;33.07;25.05
31044;BME280;17710;52.520;13.352;2023-05-21T12:46:09;101429.19;;;32.79;25.68